Time;durP1;ratioP1;P1;durP2;ratioP2;P2;SDS_P1;SDS_P2;PMS_P1;PMS_P2;Temp;Humidity;BMP_temperature;BMP_pressure;BME280_temperature;BME280_humidity;BME280_pressure;Samples;Min_cycle;Max_cycle;Signal;HPM_P1;HPM_P2
2022/05/06 00:00:31;;;;;;;12.63;10.13;;;;;;;8.35;81.22;102503.72;5028949;28;20280;-73
2022/05/06 00:02:56;;;;;;;15.53;11.63;;;;;;;8.32;81.43;102510.31;5024371;28;20265;-73
2022/05/06 00:05:21;;;;;;;15.63;11.40;;;;;;;8.27;81.24;102517.72;5009349;28;20587;-73
2022/05/06 00:07:47;;;;;;;14.70;9.77;;;;;;;8.15;80.80;102521.25;5008862;28;20187;-73
2022/05/06 00:10:14;;;;;;;16.37;10.90;;;;;;;8.14;81.48;102511.81;5009114;28;20245;-73
2022/05/06 00:12:40;;;;;;;15.67;10.23;;;;;;;8.06;81.34;102513.94;5008699;28;20211;-73
2022/05/06 00:15:09;;;;;;;14.40;10.97;;;;;;;8.05;80.84;102519.84;5009490;28;20669;-73
2022/05/06 00:17:35;;;;;;;15.07;11.30;;;;;;;8.05;81.58;102519.84;5009329;28;20183;-72
2022/05/06 00:20:01;;;;;;;13.43;10.63;;;;;;;8.04;81.06;102518.09;5013375;28;20228;-72
2022/05/06 00:22:26;;;;;;;13.13;10.30;;;;;;;8.00;80.37;102518.72;5028666;28;20572;-73
2022/05/06 00:24:51;;;;;;;14.27;11.03;;;;;;;7.99;81.22;102518.63;5028404;28;20563;-72
2022/05/06 00:27:17;;;;;;;14.70;11.10;;;;;;;7.92;81.78;102519.06;5028980;28;20179;-73
2022/05/06 00:29:43;;;;;;;14.77;10.60;;;;;;;7.89;81.04;102512.13;5028248;28;20603;-72
2022/05/06 00:32:09;;;;;;;15.40;10.37;;;;;;;7.89;81.21;102516.34;5028435;28;20613;-73
2022/05/06 00:34:35;;;;;;;13.17;10.00;;;;;;;7.87;82.15;102523.91;5026936;28;20197;-72
2022/05/06 00:37:00;;;;;;;13.70;10.30;;;;;;;7.77;82.06;102516.53;5023328;28;20549;-72
2022/05/06 00:39:26;;;;;;;14.33;9.97;;;;;;;7.84;80.92;102521.16;5010632;28;20211;-73
2022/05/06 00:41:54;;;;;;;13.80;9.80;;;;;;;7.81;80.92;102520.13;4994712;28;20182;-73
2022/05/06 00:44:19;;;;;;;15.53;10.70;;;;;;;7.82;81.32;102516.78;5011134;28;20700;-72
2022/05/06 00:46:45;;;;;;;12.97;10.20;;;;;;;7.77;82.05;102521.63;5008667;28;20289;-73
2022/05/06 00:49:12;;;;;;;16.93;11.20;;;;;;;7.76;81.52;102509.69;5030423;28;20702;-73
2022/05/06 00:51:39;;;;;;;13.90;11.30;;;;;;;7.74;82.10;102518.88;5031690;28;20190;-72
2022/05/06 00:54:06;;;;;;;15.33;12.70;;;;;;;7.75;82.53;102520.66;5026950;28;20277;-73
2022/05/06 00:56:32;;;;;;;16.20;12.37;;;;;;;7.69;83.67;102525.41;5011000;28;20195;-73
2022/05/06 00:58:57;;;;;;;18.03;12.73;;;;;;;7.68;82.57;102516.00;5010435;28;20680;-72
2022/05/06 01:01:23;;;;;;;18.30;12.67;;;;;;;7.65;83.18;102518.34;5026805;28;20251;-72
2022/05/06 01:03:48;;;;;;;18.90;13.83;;;;;;;7.68;82.69;102512.56;5040231;28;20503;-73
2022/05/06 01:06:14;;;;;;;18.33;13.40;;;;;;;7.63;82.39;102522.50;5031119;28;20189;-72
2022/05/06 01:08:43;;;;;;;16.57;13.33;;;;;;;7.56;83.04;102522.06;5030417;28;20186;-72
2022/05/06 01:11:13;;;;;;;15.97;12.70;;;;;;;7.54;82.26;102523.63;5024343;28;20863;-72
2022/05/06 01:13:45;;;;;;;18.77;13.20;;;;;;;7.53;81.99;102522.75;5010293;28;20214;-73
2022/05/06 01:16:16;;;;;;;17.03;12.43;;;;;;;7.45;81.92;102528.19;5010948;28;20273;-72
2022/05/06 01:18:47;;;;;;;19.77;13.20;;;;;;;7.43;82.87;102525.56;5017221;28;20199;-72
2022/05/06 01:21:19;;;;;;;16.00;12.27;;;;;;;7.41;81.86;102526.28;5030198;28;20663;-72
2022/05/06 01:23:44;;;;;;;18.73;12.50;;;;;;;7.35;82.71;102528.44;5032203;28;20202;-72
2022/05/06 01:26:10;;;;;;;15.90;12.00;;;;;;;7.36;82.75;102527.63;5030303;28;20594;-73
2022/05/06 01:28:38;;;;;;;17.13;12.00;;;;;;;7.37;83.04;102535.38;5020998;28;21000;-73
2022/05/06 01:31:07;;;;;;;17.17;12.17;;;;;;;7.33;82.73;102528.34;5009854;28;20190;-73
2022/05/06 01:33:34;;;;;;;18.17;13.60;;;;;;;7.21;83.98;102531.84;4994725;28;20302;-72
2022/05/06 01:36:04;;;;;;;20.77;13.60;;;;;;;7.25;83.29;102533.78;5010722;28;20222;-73
2022/05/06 01:38:44;;;;;;;19.63;13.57;;;;;;;7.22;82.87;102542.13;5012067;28;20191;-72
2022/05/06 01:41:21;;;;;;;20.10;14.20;;;;;;;7.22;83.06;102546.31;5010886;28;20262;-72
2022/05/06 01:44:04;;;;;;;18.60;13.47;;;;;;;7.08;83.89;102545.50;5010605;28;21040;-73
2022/05/06 01:46:30;;;;;;;20.87;14.33;;;;;;;7.06;83.65;102556.38;5011316;28;20863;-73
2022/05/06 01:49:02;;;;;;;21.97;14.67;;;;;;;7.07;84.42;102555.59;5031497;28;20260;-73
2022/05/06 01:51:30;;;;;;;19.07;13.77;;;;;;;7.04;84.60;102557.97;5031577;28;20303;-72
2022/05/06 01:53:58;;;;;;;20.73;14.40;;;;;;;7.05;83.98;102562.28;5031071;28;20202;-72
2022/05/06 01:56:24;;;;;;;18.80;13.90;;;;;;;7.07;83.19;102564.13;5030240;28;20179;-73
2022/05/06 01:58:50;;;;;;;22.63;14.60;;;;;;;7.03;83.10;102564.72;5029428;28;20271;-72
2022/05/06 02:01:17;;;;;;;19.93;14.00;;;;;;;6.96;83.43;102552.38;5029983;28;20190;-72
2022/05/06 02:06:30;;;;;;;19.70;14.20;;;;;;;6.92;83.31;102552.13;5029961;28;20182;-72
2022/05/06 02:09:12;;;;;;;19.20;13.47;;;;;;;6.87;84.04;102556.91;5029778;28;20174;-72
2022/05/06 02:11:50;;;;;;;18.77;13.80;;;;;;;6.90;84.09;102551.13;5029792;28;20183;-72
2022/05/06 02:14:16;;;;;;;21.63;15.17;;;;;;;6.92;83.86;102555.56;5031922;28;20260;-72
2022/05/06 02:17:00;;;;;;;20.93;14.50;;;;;;;6.83;84.42;102551.56;5050880;28;20978;-72
2022/05/06 02:19:49;;;;;;;22.47;14.70;;;;;;;6.81;84.61;102548.91;5044273;28;20308;-72
2022/05/06 02:22:29;;;;;;;19.73;13.57;;;;;;;6.78;84.74;102556.34;5039848;28;20324;-72
2022/05/06 02:25:22;;;;;;;21.40;14.40;;;;;;;6.64;84.96;102557.16;5019462;28;20198;-73
2022/05/06 02:27:53;;;;;;;20.87;14.87;;;;;;;6.67;84.71;102554.81;5048515;28;20189;-73
2022/05/06 02:33:12;;;;;;;20.73;14.17;;;;;;;6.65;83.91;102555.50;5048841;28;20236;-73
2022/05/06 02:35:43;;;;;;;21.07;15.07;;;;;;;6.62;84.83;102555.31;5037905;28;20607;-73
2022/05/06 02:38:09;;;;;;;21.33;14.40;;;;;;;6.59;84.65;102556.00;5039026;28;20190;-73
2022/05/06 02:40:36;;;;;;;20.13;14.60;;;;;;;6.48;85.38;102559.53;5029117;28;20285;-72
2022/05/06 02:43:04;;;;;;;19.53;13.60;;;;;;;6.42;84.98;102554.06;5028808;28;20198;-73
2022/05/06 02:45:34;;;;;;;17.53;13.50;;;;;;;6.42;83.98;102559.16;5036421;28;20609;-72
2022/05/06 02:48:01;;;;;;;16.67;13.10;;;;;;;6.48;83.48;102558.66;5033572;28;20193;-72
2022/05/06 02:50:27;;;;;;;20.07;14.47;;;;;;;6.47;83.34;102556.91;5048617;28;20200;-72
2022/05/06 02:52:53;;;;;;;21.53;14.70;;;;;;;6.44;83.88;102547.41;5047677;28;20579;-72
2022/05/06 02:55:20;;;;;;;24.23;16.10;;;;;;;6.40;85.58;102549.69;5039116;28;20624;-72
2022/05/06 02:57:45;;;;;;;21.70;15.40;;;;;;;6.35;84.70;102551.06;5045488;28;20189;-72
2022/05/06 03:00:12;;;;;;;18.20;13.90;;;;;;;6.32;84.35;102559.38;5048120;28;20206;-72
2022/05/06 03:02:37;;;;;;;19.63;14.43;;;;;;;6.32;84.32;102553.38;5031484;28;20255;-72
2022/05/06 03:05:06;;;;;;;22.17;14.50;;;;;;;6.33;84.03;102556.03;5042331;28;20933;-74
2022/05/06 03:07:32;;;;;;;17.80;14.03;;;;;;;6.24;84.10;102552.91;5036848;28;20581;-73
2022/05/06 03:09:57;;;;;;;19.80;14.53;;;;;;;6.30;83.71;102544.75;5022727;28;20178;-73
2022/05/06 03:12:29;;;;;;;20.33;14.23;;;;;;;6.23;85.32;102556.25;5040030;28;20209;-73
2022/05/06 03:15:03;;;;;;;20.37;14.17;;;;;;;6.21;85.14;102545.06;5026622;28;20199;-73
2022/05/06 03:17:36;;;;;;;20.73;14.23;;;;;;;6.23;85.53;102550.25;5032237;28;20182;-73
2022/05/06 03:20:05;;;;;;;17.40;13.07;;;;;;;6.22;85.21;102559.53;5033828;28;20210;-73
2022/05/06 03:22:35;;;;;;;19.63;14.23;;;;;;;6.17;85.42;102555.81;5028098;28;20194;-73
2022/05/06 03:25:01;;;;;;;19.57;14.00;;;;;;;6.18;84.83;102555.03;5031895;28;20182;-73
2022/05/06 03:30:11;;;;;;;18.67;13.93;;;;;;;6.29;85.56;102561.72;5029742;28;20588;-73
2022/05/06 03:32:38;;;;;;;16.87;12.80;;;;;;;6.32;86.24;102559.38;5028553;28;20564;-73
2022/05/06 03:35:05;;;;;;;19.43;13.77;;;;;;;6.40;86.92;102560.72;5030711;28;20186;-73
2022/05/06 03:37:31;;;;;;;16.30;12.00;;;;;;;6.46;87.08;102563.66;5039324;28;20573;-73
2022/05/06 03:39:56;;;;;;;14.13;11.87;;;;;;;6.53;87.90;102554.72;5027928;28;20226;-73
2022/05/06 03:42:22;;;;;;;14.33;12.20;;;;;;;6.54;88.76;102556.50;5012247;28;20206;-72
2022/05/06 03:44:48;;;;;;;15.40;11.70;;;;;;;6.53;89.56;102562.34;5029903;28;20194;-73
2022/05/06 03:47:15;;;;;;;16.50;13.77;;;;;;;6.62;89.77;102557.84;5044423;28;20190;-73
2022/05/06 03:49:41;;;;;;;19.97;14.20;;;;;;;6.66;90.42;102563.25;5044912;28;20188;-73
2022/05/06 03:52:06;;;;;;;21.23;15.40;;;;;;;6.62;90.21;102555.31;5034091;28;20607;-72
2022/05/06 03:54:33;;;;;;;20.53;14.90;;;;;;;6.66;90.44;102565.78;5026022;28;20182;-73
2022/05/06 03:56:59;;;;;;;20.77;14.73;;;;;;;6.65;90.01;102570.78;5037207;28;20181;-72
2022/05/06 03:59:24;;;;;;;22.80;15.37;;;;;;;6.60;90.78;102575.59;5031563;28;20571;-72
2022/05/06 04:01:58;;;;;;;20.20;15.20;;;;;;;6.51;90.11;102569.03;5026886;28;20604;-73
2022/05/06 04:04:28;;;;;;;21.17;15.67;;;;;;;6.59;89.58;102573.81;5038343;28;20192;-72
2022/05/06 04:06:56;;;;;;;27.90;17.27;;;;;;;6.59;89.57;102575.50;5040749;28;20194;-72
2022/05/06 04:09:22;;;;;;;24.30;15.93;;;;;;;6.57;89.78;102577.03;5030687;28;20194;-73
2022/05/06 04:11:48;;;;;;;29.03;18.50;;;;;;;6.64;90.00;102574.13;5028193;28;20201;-73
2022/05/06 04:14:14;;;;;;;27.23;18.67;;;;;;;6.65;89.99;102583.50;5030488;28;20202;-73
2022/05/06 04:16:44;;;;;;;29.07;19.33;;;;;;;6.75;89.53;102581.63;5033854;28;20203;-73
2022/05/06 04:19:19;;;;;;;26.57;17.97;;;;;;;6.82;89.17;102580.34;5045077;28;20209;-73
2022/05/06 04:24:36;;;;;;;25.30;17.13;;;;;;;6.88;88.96;102580.72;5031595;28;20183;-73
2022/05/06 04:27:01;;;;;;;25.57;17.00;;;;;;;6.77;89.16;102577.50;5015068;28;20831;-73
2022/05/06 04:29:28;;;;;;;34.20;19.27;;;;;;;6.81;88.98;102579.47;5034734;28;20186;-72
2022/05/06 04:31:53;;;;;;;27.63;17.17;;;;;;;6.81;88.81;102578.59;5051597;28;20201;-73
2022/05/06 04:34:20;;;;;;;26.10;16.97;;;;;;;6.78;88.91;102583.50;5041068;28;20233;-73
2022/05/06 04:36:45;;;;;;;27.50;16.73;;;;;;;6.78;89.04;102584.34;5031000;28;20645;-73
2022/05/06 04:39:12;;;;;;;26.27;16.07;;;;;;;6.87;88.92;102578.97;5031360;28;20222;-73
2022/05/06 04:41:45;;;;;;;25.17;15.80;;;;;;;6.94;88.68;102581.97;5032252;28;20170;-73
2022/05/06 04:44:11;;;;;;;25.47;16.90;;;;;;;6.98;89.29;102581.38;5031442;28;20203;-73
2022/05/06 04:46:37;;;;;;;29.80;17.07;;;;;;;7.06;89.39;102574.22;5031021;28;20565;-73
2022/05/06 04:49:02;;;;;;;26.93;17.27;;;;;;;7.09;88.82;102582.91;5031168;28;20186;-73
2022/05/06 04:51:28;;;;;;;25.73;16.80;;;;;;;7.12;88.56;102588.22;5029799;28;20182;-73
2022/05/06 04:53:55;;;;;;;29.23;16.07;;;;;;;7.18;89.19;102580.94;5011519;28;20265;-73
2022/05/06 04:56:23;;;;;;;26.83;17.30;;;;;;;7.27;88.99;102580.63;5011538;28;20218;-73
2022/05/06 04:58:53;;;;;;;28.30;17.23;;;;;;;7.31;88.77;102580.00;5010840;28;20265;-72
2022/05/06 05:01:27;;;;;;;24.93;15.83;;;;;;;7.45;88.85;102582.59;5011758;28;20644;-73
2022/05/06 05:03:53;;;;;;;26.40;17.77;;;;;;;7.54;88.90;102579.69;5010920;28;20229;-73
2022/05/06 05:06:18;;;;;;;26.77;17.70;;;;;;;7.60;88.03;102591.13;5011407;28;20191;-73
2022/05/06 05:08:45;;;;;;;26.10;17.53;;;;;;;7.69;88.18;102595.91;5010918;28;20225;-73
2022/05/06 05:11:11;;;;;;;30.80;18.47;;;;;;;7.77;87.78;102597.22;5027744;28;20211;-73
2022/05/06 05:13:45;;;;;;;30.60;19.50;;;;;;;7.88;87.39;102591.09;5010331;28;20210;-73
2022/05/06 05:16:19;;;;;;;30.63;19.23;;;;;;;8.08;87.80;102588.00;5011238;28;20179;-72
2022/05/06 05:18:45;;;;;;;28.13;18.73;;;;;;;8.23;87.58;102591.47;5010811;28;20213;-73
2022/05/06 05:21:10;;;;;;;26.33;18.00;;;;;;;8.38;87.36;102595.75;5015294;28;20187;-73
2022/05/06 05:23:36;;;;;;;30.20;19.03;;;;;;;8.54;87.00;102597.50;4986387;28;20276;-73
2022/05/06 05:26:01;;;;;;;30.60;19.73;;;;;;;8.67;86.84;102592.28;5022705;28;20735;-72
2022/05/06 05:28:27;;;;;;;32.20;19.83;;;;;;;8.85;86.54;102598.41;5030778;28;20214;-73
2022/05/06 05:30:53;;;;;;;30.90;19.17;;;;;;;9.01;86.16;102593.28;5029446;28;20718;-73
2022/05/06 05:33:19;;;;;;;29.07;19.67;;;;;;;9.15;85.98;102594.91;5029699;28;20260;-72
2022/05/06 05:35:49;;;;;;;28.93;19.73;;;;;;;9.31;85.61;102594.94;5048871;28;20176;-72
2022/05/06 05:38:14;;;;;;;31.63;18.47;;;;;;;9.48;85.47;102589.88;5048485;28;20185;-72
2022/05/06 05:40:41;;;;;;;28.40;18.60;;;;;;;9.60;84.96;102592.19;5048499;28;20259;-71
2022/05/06 05:48:19;;;;;;;29.87;19.10;;;;;;;9.75;85.50;102585.28;5034798;28;20211;-72
2022/05/06 05:48:39;;;;;;;26.63;17.70;;;;;;;10.06;83.41;102589.50;5009813;28;20187;-72
2022/05/06 05:51:04;;;;;;;29.27;19.43;;;;;;;10.12;84.52;102588.91;5010550;28;20597;-72
2022/05/06 05:53:38;;;;;;;27.97;20.13;;;;;;;10.23;84.09;102595.44;5009988;28;20211;-71
2022/05/06 05:56:03;;;;;;;30.97;20.03;;;;;;;10.21;84.09;102592.81;5011691;28;20253;-71
2022/05/06 05:58:28;;;;;;;28.13;18.57;;;;;;;10.43;82.98;102602.41;5010254;28;20205;-72
2022/05/06 06:00:57;;;;;;;29.37;19.03;;;;;;;10.63;82.48;102587.19;5009781;28;20282;-71
2022/05/06 06:03:29;;;;;;;25.27;17.87;;;;;;;10.87;81.46;102587.47;5010286;28;20233;-71
2022/05/06 06:05:55;;;;;;;26.50;18.47;;;;;;;11.01;81.27;102588.97;5009649;28;20656;-71
2022/05/06 06:08:21;;;;;;;26.23;18.90;;;;;;;11.15;81.16;102582.78;5010485;28;20187;-71
2022/05/06 06:10:47;;;;;;;30.13;19.67;;;;;;;11.16;80.75;102584.53;5009155;28;20260;-71
2022/05/06 06:13:16;;;;;;;30.30;20.07;;;;;;;11.33;80.37;102583.59;5010001;28;20211;-71
2022/05/06 06:15:43;;;;;;;31.03;18.93;;;;;;;11.39;80.28;102579.56;5009973;28;20555;-71
2022/05/06 06:18:09;;;;;;;30.37;21.23;;;;;;;11.51;79.98;102586.94;5010496;28;20195;-71
2022/05/06 06:20:37;;;;;;;32.27;20.60;;;;;;;11.55;79.88;102583.69;5009819;28;20236;-71
2022/05/06 06:23:02;;;;;;;31.77;21.50;;;;;;;11.57;80.23;102577.81;5017375;28;20289;-71
2022/05/06 06:25:28;;;;;;;30.80;20.63;;;;;;;11.83;78.97;102576.38;5040920;28;20277;-72
2022/05/06 06:27:56;;;;;;;35.03;22.37;;;;;;;11.92;79.42;102587.94;5029068;28;20193;-71
2022/05/06 06:30:23;;;;;;;32.63;21.47;;;;;;;12.12;78.92;102583.63;5029424;28;20663;-71
2022/05/06 06:32:50;;;;;;;31.93;21.87;;;;;;;12.42;77.93;102579.72;5028888;28;20233;-71
2022/05/06 06:35:18;;;;;;;35.30;21.83;;;;;;;12.32;77.21;102578.47;5012620;28;20218;-71
2022/05/06 06:37:49;;;;;;;35.60;22.60;;;;;;;12.48;77.35;102580.84;5009257;28;20225;-72
2022/05/06 06:40:17;;;;;;;35.27;21.93;;;;;;;12.73;76.69;102578.38;5008957;28;20862;-72
2022/05/06 06:42:44;;;;;;;34.47;22.00;;;;;;;12.61;76.55;102579.59;5008485;28;20206;-72
2022/05/06 06:45:46;;;;;;;31.27;21.17;;;;;;;12.94;75.15;102574.06;4988325;28;20211;-71
2022/05/06 06:48:34;;;;;;;32.17;21.17;;;;;;;12.77;75.10;102581.97;5007082;28;20198;-71
2022/05/06 06:51:21;;;;;;;34.27;21.97;;;;;;;13.01;74.85;102577.78;5000509;28;20237;-72
2022/05/06 06:53:53;;;;;;;30.60;21.70;;;;;;;13.21;74.63;102581.97;5022994;28;20224;-73
2022/05/06 06:56:18;;;;;;;32.20;21.37;;;;;;;13.38;73.41;102586.03;5029712;28;20249;-71
2022/05/06 06:58:44;;;;;;;30.33;20.93;;;;;;;13.68;72.68;102573.38;5029695;28;20687;-72
2022/05/06 07:01:09;;;;;;;32.90;21.50;;;;;;;13.97;72.05;102583.84;5029400;28;20193;-71
2022/05/06 07:03:34;;;;;;;27.97;18.93;;;;;;;14.26;71.36;102580.53;5029902;28;20212;-72
2022/05/06 07:14:11;;;;;;;32.60;21.27;;;;;;;14.46;69.78;102582.03;5029355;28;20210;-73
2022/05/06 07:16:39;;;;;;;32.27;22.10;;;;;;;14.52;68.92;102584.81;5029477;28;20199;-73
2022/05/06 07:19:04;;;;;;;29.83;21.93;;;;;;;14.46;69.34;102583.75;5029108;28;20272;-73
2022/05/06 07:21:30;;;;;;;35.27;22.57;;;;;;;14.61;68.37;102584.22;5030019;28;20236;-73
2022/05/06 07:23:55;;;;;;;33.97;22.17;;;;;;;15.11;68.42;102577.16;5027755;28;20213;-73
2022/05/06 07:26:20;;;;;;;29.73;21.23;;;;;;;15.39;66.44;102579.75;5014080;28;20206;-73
2022/05/06 07:28:46;;;;;;;31.60;22.13;;;;;;;15.38;67.45;102579.69;5008583;28;20187;-73
2022/05/06 07:31:11;;;;;;;29.03;21.87;;;;;;;14.87;67.18;102583.31;5009427;28;20195;-73
2022/05/06 07:33:37;;;;;;;33.70;22.77;;;;;;;14.76;68.20;102584.69;5010132;28;20257;-73
2022/05/06 07:36:02;;;;;;;31.57;22.67;;;;;;;14.95;68.02;102580.13;5009481;28;20198;-73
2022/05/06 07:38:27;;;;;;;30.80;22.47;;;;;;;15.51;67.09;102572.31;5008265;28;20576;-73
2022/05/06 07:40:53;;;;;;;31.07;21.50;;;;;;;15.81;64.85;102573.13;5007861;28;20187;-73
2022/05/06 07:43:18;;;;;;;29.83;21.00;;;;;;;16.18;64.07;102575.81;5009682;28;20215;-73
2022/05/06 07:45:44;;;;;;;28.50;20.93;;;;;;;16.39;63.13;102578.03;5009844;28;20199;-73
2022/05/06 07:48:10;;;;;;;30.70;20.57;;;;;;;16.59;62.48;102580.28;5008692;28;20203;-73
2022/05/06 07:50:37;;;;;;;28.30;20.90;;;;;;;16.56;62.29;102576.72;5009497;28;20187;-73
2022/05/06 07:53:03;;;;;;;29.50;20.63;;;;;;;16.52;62.15;102577.47;4999691;28;20234;-73
2022/05/06 07:55:29;;;;;;;29.67;21.93;;;;;;;16.87;61.23;102568.81;5009711;28;20236;-72
2022/05/06 07:57:57;;;;;;;26.53;21.27;;;;;;;16.65;61.25;102576.94;5009166;28;20942;-72
2022/05/06 08:00:25;;;;;;;31.33;21.50;;;;;;;16.61;62.15;102575.13;5022458;28;20755;-72
2022/05/06 08:05:37;;;;;;;28.57;19.70;;;;;;;17.44;59.70;102573.50;5029071;28;20221;-72
2022/05/06 08:08:03;;;;;;;26.17;18.37;;;;;;;17.76;58.95;102576.66;5029189;28;20185;-72
2022/05/06 08:10:28;;;;;;;27.13;19.30;;;;;;;17.59;58.06;102578.94;5028502;28;20186;-72
2022/05/06 08:12:53;;;;;;;28.50;20.57;;;;;;;18.06;58.00;102570.28;5029093;28;20206;-73
2022/05/06 08:15:19;;;;;;;27.03;19.53;;;;;;;18.24;56.63;102574.91;5028769;28;20193;-73
2022/05/06 08:17:44;;;;;;;26.30;18.80;;;;;;;18.50;56.21;102571.00;5028301;28;20202;-73
2022/05/06 08:20:10;;;;;;;26.00;18.67;;;;;;;18.51;56.17;102563.25;5028756;28;20232;-73
2022/05/06 08:22:36;;;;;;;19.47;14.03;;;;;;;18.61;54.38;102572.91;5026297;28;20206;-73
2022/05/06 08:25:03;;;;;;;19.40;13.33;;;;;;;18.89;53.64;102561.22;5032986;28;20256;-73
2022/05/06 08:27:28;;;;;;;19.17;14.80;;;;;;;18.93;53.45;102556.06;5027384;28;20228;-73
2022/05/06 08:29:53;;;;;;;21.00;15.10;;;;;;;18.49;53.60;102553.72;5028935;28;20206;-72
2022/05/06 08:32:19;;;;;;;23.07;16.50;;;;;;;18.83;54.91;102551.59;5026924;28;20229;-72
2022/05/06 08:34:47;;;;;;;19.33;14.03;;;;;;;19.22;51.97;102548.63;5009306;28;20191;-72
2022/05/06 08:37:12;;;;;;;17.77;13.67;;;;;;;19.58;51.54;102552.50;5007689;28;20286;-72
2022/05/06 08:39:38;;;;;;;16.27;14.17;;;;;;;19.52;50.31;102551.56;5008454;28;20302;-73
2022/05/06 08:42:06;;;;;;;19.00;14.13;;;;;;;19.78;50.79;102543.19;5008687;28;20188;-73
2022/05/06 08:52:48;;;;;;;19.00;14.60;;;;;;;20.10;49.26;102553.91;5020015;28;20246;-74
2022/05/06 08:55:13;;;;;;;19.33;13.90;;;;;;;20.08;49.74;102548.69;5028573;28;20719;-74
2022/05/06 08:57:40;;;;;;;17.73;14.13;;;;;;;20.39;48.61;102550.66;5028656;28;20328;-74
2022/05/06 09:00:06;;;;;;;17.67;13.30;;;;;;;20.42;48.55;102547.19;5031129;28;20229;-74
2022/05/06 09:02:31;;;;;;;17.40;13.67;;;;;;;20.72;49.60;102548.25;5030649;28;20713;-74
2022/05/06 09:04:57;;;;;;;18.77;14.03;;;;;;;20.85;47.22;102541.34;5032407;28;20178;-74
2022/05/06 09:07:25;;;;;;;15.07;13.30;;;;;;;20.74;46.75;102538.72;5030128;28;20194;-73
2022/05/06 09:10:09;;;;;;;16.83;13.27;;;;;;;21.02;47.21;102550.16;5032165;28;20206;-73
2022/05/06 09:12:44;;;;;;;14.43;12.73;;;;;;;21.02;46.20;102539.72;5031772;28;20264;-74
2022/05/06 09:17:56;;;;;;;16.07;13.03;;;;;;;21.24;46.88;102546.78;5032281;28;20174;-73
2022/05/06 09:20:22;;;;;;;15.80;12.73;;;;;;;21.46;45.71;102544.22;5030737;28;20701;-73
2022/05/06 09:22:50;;;;;;;16.67;13.23;;;;;;;21.78;45.22;102539.94;5035092;28;20637;-74
2022/05/06 09:25:34;;;;;;;16.47;12.37;;;;;;;21.68;44.21;102543.38;5037321;28;20584;-74
2022/05/06 09:28:00;;;;;;;16.70;13.20;;;;;;;22.03;44.29;102535.59;5029160;28;20220;-73
2022/05/06 09:30:25;;;;;;;18.03;14.07;;;;;;;21.89;43.89;102539.97;5027832;28;20262;-73
2022/05/06 09:32:50;;;;;;;16.90;13.37;;;;;;;22.08;44.52;102536.47;5024963;28;20287;-74
2022/05/06 09:35:16;;;;;;;18.97;14.03;;;;;;;22.24;43.96;102527.75;5031722;28;20191;-74
2022/05/06 09:37:43;;;;;;;18.17;13.00;;;;;;;22.08;44.29;102534.75;5021105;28;20199;-73
2022/05/06 09:40:14;;;;;;;17.70;13.17;;;;;;;22.47;45.80;102528.59;5025426;28;20228;-73
2022/05/06 09:42:44;;;;;;;17.37;13.80;;;;;;;22.51;43.44;102526.88;5021918;28;20281;-73
2022/05/06 09:45:14;;;;;;;16.30;13.70;;;;;;;22.42;44.19;102532.94;5020563;28;20186;-74
2022/05/06 09:47:40;;;;;;;15.33;13.53;;;;;;;22.44;44.39;102529.44;5023109;28;20187;-73
2022/05/06 09:50:08;;;;;;;15.30;13.20;;;;;;;22.77;43.14;102531.16;5016757;28;20187;-74
2022/05/06 09:52:34;;;;;;;13.67;12.10;;;;;;;23.08;42.17;102524.03;5011090;28;20235;-74
2022/05/06 09:55:00;;;;;;;19.97;13.13;;;;;;;23.15;42.01;102517.91;5011302;28;20649;-73
2022/05/06 09:57:26;;;;;;;15.00;11.40;;;;;;;23.30;42.67;102525.69;5011643;28;20266;-73
2022/05/06 09:59:52;;;;;;;17.83;12.90;;;;;;;23.22;43.38;102520.53;5018787;28;20214;-72
2022/05/06 10:02:18;;;;;;;16.13;13.60;;;;;;;23.26;41.79;102513.53;5030890;28;20189;-73
2022/05/06 10:04:44;;;;;;;17.20;12.73;;;;;;;23.40;41.96;102509.94;5030687;28;20656;-73
2022/05/06 10:07:12;;;;;;;18.13;13.50;;;;;;;23.52;41.62;102514.25;5030815;28;20197;-73
2022/05/06 10:09:44;;;;;;;14.47;12.47;;;;;;;23.54;41.36;102515.06;5030672;28;20529;-72
2022/05/06 10:12:13;;;;;;;14.10;12.60;;;;;;;23.90;41.83;102517.44;5030239;28;20611;-73
2022/05/06 10:14:40;;;;;;;15.47;12.03;;;;;;;23.99;40.99;102513.00;5027381;28;20193;-73
2022/05/06 10:17:05;;;;;;;16.07;11.87;;;;;;;24.16;40.12;102512.81;5010653;28;20253;-73
2022/05/06 10:19:38;;;;;;;14.80;12.20;;;;;;;24.10;40.47;102510.28;5009388;28;20215;-72
2022/05/06 10:22:04;;;;;;;17.90;12.90;;;;;;;24.12;40.33;102503.28;5008975;28;20694;-73
2022/05/06 10:24:41;;;;;;;16.93;13.37;;;;;;;24.26;40.48;102509.25;5034989;28;20198;-73
2022/05/06 10:33:13;;;;;;;13.98;11.00;;;;;;;24.22;39.77;102503.16;5010829;28;20215;-73
2022/05/06 10:35:40;;;;;;;13.30;11.18;;;;;;;24.22;39.23;102494.47;5010708;28;20210;-73
2022/05/06 10:38:25;;;;;;;12.57;11.20;;;;;;;24.06;39.09;102487.63;5010954;28;20186;-73
2022/05/06 10:40:58;;;;;;;13.80;10.77;;;;;;;24.02;40.12;102497.25;5010313;28;20294;-72
2022/05/06 10:43:48;;;;;;;15.03;11.20;;;;;;;23.21;40.39;102494.38;5010556;28;20218;-73
2022/05/06 10:46:34;;;;;;;16.70;11.17;;;;;;;24.01;39.38;102484.19;5016472;28;20182;-73
2022/05/06 10:49:37;;;;;;;16.07;13.20;;;;;;;24.70;38.89;102484.34;5025051;28;20190;-73
2022/05/06 10:52:22;;;;;;;13.43;11.63;;;;;;;25.19;38.63;102477.53;5009877;28;20183;-74
2022/05/06 10:54:50;;;;;;;15.65;12.65;;;;;;;24.80;38.57;102475.47;5010610;28;20183;-73
2022/05/06 10:57:18;;;;;;;14.52;11.63;;;;;;;25.13;38.21;102476.72;5009874;28;20187;-73
2022/05/06 10:59:54;;;;;;;14.45;12.05;;;;;;;25.03;38.86;102480.38;5017090;28;20233;-73
2022/05/06 11:02:25;;;;;;;15.75;11.25;;;;;;;25.19;37.37;102477.53;5029324;28;20191;-73
2022/05/06 11:04:51;;;;;;;11.65;10.45;;;;;;;25.08;37.56;102468.94;5029888;28;20304;-73
2022/05/06 11:07:17;;;;;;;10.27;9.10;;;;;;;25.33;36.72;102464.25;5013835;28;20293;-73
2022/05/06 11:09:43;;;;;;;10.43;9.10;;;;;;;24.30;38.76;102462.06;5009505;28;20179;-72
2022/05/06 11:12:09;;;;;;;11.45;9.57;;;;;;;25.03;37.32;102462.03;5024638;28;20222;-73
2022/05/06 11:14:34;;;;;;;12.32;10.73;;;;;;;25.01;36.51;102456.78;5029356;28;20240;-73
2022/05/06 11:17:18;;;;;;;12.15;10.15;;;;;;;25.28;36.54;102455.59;5029718;28;20190;-72
2022/05/06 11:19:44;;;;;;;12.15;10.07;;;;;;;24.46;36.88;102454.91;5029042;28;20236;-73
2022/05/06 11:22:11;;;;;;;12.73;10.47;;;;;;;24.60;37.60;102453.88;5024092;28;20246;-73
2022/05/06 11:24:36;;;;;;;13.67;10.70;;;;;;;24.37;38.27;102455.00;5039420;28;20534;-72
2022/05/06 11:27:18;;;;;;;14.10;10.93;;;;;;;24.44;39.41;102454.06;5049524;28;20176;-73
2022/05/06 11:29:50;;;;;;;13.77;11.33;;;;;;;24.95;39.43;102449.03;5049242;28;20190;-73
2022/05/06 11:32:18;;;;;;;14.15;11.15;;;;;;;25.12;37.28;102448.78;5048927;28;20201;-73
2022/05/06 11:35:06;;;;;;;12.13;9.90;;;;;;;25.02;37.56;102445.44;5048199;28;20677;-73
2022/05/06 11:37:34;;;;;;;15.45;9.35;;;;;;;25.60;36.62;102437.56;5049062;28;20177;-73
2022/05/06 11:42:43;;;;;;;12.02;9.50;;;;;;;25.60;35.40;102435.78;5009360;28;20333;-73
2022/05/06 11:48:10;;;;;;;12.45;9.63;;;;;;;25.64;34.81;102436.63;5009151;28;20210;-73
2022/05/06 11:50:37;;;;;;;12.02;8.65;;;;;;;25.76;35.62;102425.91;5009509;28;20204;-73
2022/05/06 11:53:08;;;;;;;16.08;9.05;;;;;;;25.80;35.04;102420.59;5021765;28;20210;-74
2022/05/06 11:55:35;;;;;;;9.10;8.15;;;;;;;25.85;36.53;102421.38;5036696;28;20202;-73
2022/05/06 11:58:03;;;;;;;11.52;9.43;;;;;;;25.74;35.31;102422.44;5020095;28;20182;-73
2022/05/06 12:00:29;;;;;;;11.27;9.30;;;;;;;25.66;36.79;102419.09;5028573;28;20218;-74
2022/05/06 12:02:55;;;;;;;10.80;9.00;;;;;;;25.77;36.21;102415.38;5028364;28;20216;-76
2022/05/06 12:05:21;;;;;;;12.40;8.27;;;;;;;25.54;35.41;102417.53;5033089;28;20182;-74
2022/05/06 12:07:48;;;;;;;10.35;9.05;;;;;;;25.94;34.31;102413.34;5048978;28;20190;-74